createdAt,value
2019-05-17T00:02:26.745Z,97069.72
2019-05-17T00:07:30.060Z,97059.45
2019-05-17T00:12:33.364Z,97057.75
2019-05-17T00:17:37.704Z,97045.20
2019-05-17T00:22:41.196Z,97048.05
2019-05-17T00:27:44.640Z,97047.19
2019-05-17T00:32:48.619Z,97042.50
2019-05-17T00:37:57.100Z,97026.70
2019-05-17T00:43:00.405Z,97016.36
2019-05-17T00:48:06.291Z,97012.67
2019-05-17T00:53:08.995Z,97010.40
2019-05-17T00:58:12.276Z,97020.73
2019-05-17T01:03:16.295Z,97012.34
2019-05-17T01:08:19.716Z,97007.94
2019-05-17T01:13:23.010Z,97002.52
2019-05-17T01:18:27.220Z,97011.63
2019-05-17T01:23:30.883Z,97003.81
2019-05-17T01:28:36.208Z,96998.98
2019-05-17T01:33:39.314Z,96998.98
2019-05-17T01:38:42.618Z,96989.62
2019-05-17T01:43:47.453Z,96980.83
2019-05-17T01:48:50.831Z,96977.00
2019-05-17T01:53:54.127Z,96979.31
2019-05-17T01:58:57.620Z,96966.84
2019-05-17T02:04:00.982Z,96971.88
2019-05-17T02:09:06.460Z,96963.31
2019-05-17T02:14:09.695Z,96954.92
2019-05-17T02:19:13.024Z,96958.43
2019-05-17T02:24:16.988Z,96964.61
2019-05-17T02:29:21.473Z,96952.03
2019-05-17T02:34:24.804Z,96954.34
2019-05-17T02:39:28.095Z,96952.32
2019-05-17T02:44:33.559Z,96949.33
2019-05-17T02:49:36.390Z,96949.87
2019-05-17T02:54:39.700Z,96949.03
2019-05-17T02:59:43.378Z,96952.65
2019-05-17T03:04:46.784Z,96950.16
2019-05-17T03:09:53.199Z,96946.80
2019-05-17T03:14:55.121Z,96946.61
2019-05-17T03:19:58.424Z,96947.08
2019-05-17T03:25:03.309Z,96942.20
2019-05-17T03:30:07.481Z,96947.64
2019-05-17T03:35:16.865Z,96942.95
2019-05-17T03:40:35.167Z,96948.11
2019-05-17T03:45:22.794Z,96945.50
2019-05-17T03:50:26.315Z,96950.50
2019-05-17T03:55:32.798Z,96946.39
2019-05-17T04:00:35.552Z,96942.03
2019-05-17T04:05:42.658Z,96945.94
2019-05-17T04:10:44.033Z,96947.02
2019-05-17T04:15:47.321Z,96943.79
2019-05-17T04:20:52.782Z,96946.17
2019-05-17T04:25:55.649Z,96950.23
2019-05-17T04:30:58.949Z,96951.58
2019-05-17T04:36:02.842Z,96950.03
2019-05-17T04:41:06.243Z,96948.52
2019-05-17T04:46:12.719Z,96947.13
2019-05-17T04:51:14.613Z,96947.38
2019-05-17T04:56:17.880Z,96953.36
2019-05-17T05:01:23.617Z,96951.75
2019-05-17T05:06:26.195Z,96953.27
2019-05-17T05:11:32.607Z,96952.30
2019-05-17T05:16:34.523Z,96955.57
2019-05-17T05:21:37.825Z,96953.27
2019-05-17T05:26:42.454Z,96943.56
2019-05-17T05:31:45.915Z,96953.59
2019-05-17T05:36:49.196Z,96943.55
2019-05-17T05:42:05.108Z,96937.25
2019-05-17T05:46:57.500Z,96931.06
2019-05-17T05:52:01.932Z,96931.44
2019-05-17T05:57:05.437Z,96918.58
2019-05-17T06:02:08.755Z,96907.28
2019-05-17T06:07:12.842Z,96908.62
2019-05-17T06:12:23.771Z,96903.09
2019-05-17T06:17:21.690Z,96898.02
2019-05-17T06:22:25.021Z,96907.72
2019-05-17T06:27:28.304Z,96915.20
2019-05-17T06:32:31.803Z,96915.05
2019-05-17T06:37:35.093Z,96913.69
2019-05-17T06:42:44.131Z,96919.50
2019-05-17T06:47:43.441Z,96918.44
2019-05-17T06:52:47.725Z,96917.19
2019-05-17T06:57:52.756Z,96915.68
2019-05-17T07:02:56.090Z,96918.39
2019-05-17T07:08:00.271Z,96909.34
2019-05-17T07:13:03.669Z,96909.77
2019-05-17T07:18:06.990Z,96908.50
2019-05-17T07:23:10.877Z,96907.94
2019-05-17T07:28:14.339Z,96898.23
2019-05-17T07:33:19.777Z,96894.20
2019-05-17T07:38:22.700Z,96878.63
2019-05-17T07:43:25.994Z,96878.17
2019-05-17T07:48:31.403Z,96875.79
2019-05-17T07:53:34.343Z,96876.48
2019-05-17T07:58:37.645Z,96870.38
2019-05-17T08:03:40.957Z,96865.98
2019-05-17T08:08:45.234Z,96861.52
2019-05-17T08:13:50.538Z,96854.28
2019-05-17T08:18:55.598Z,96849.98
2019-05-17T08:24:00.122Z,96854.16
2019-05-17T08:29:03.567Z,96855.95
2019-05-17T08:34:07.049Z,96847.79
2019-05-17T08:39:10.453Z,96848.80
2019-05-17T08:44:13.727Z,96839.98
2019-05-17T08:49:17.029Z,96842.08
2019-05-17T08:54:20.315Z,96829.66
2019-05-17T08:59:23.605Z,96827.41
2019-05-17T09:04:27.020Z,96827.03
2019-05-17T09:09:31.555Z,96830.30
2019-05-17T09:14:34.954Z,96815.72
2019-05-17T09:19:39.491Z,96819.55
2019-05-17T09:24:42.940Z,96816.72
2019-05-17T09:29:46.237Z,96818.52
2019-05-17T09:34:49.914Z,96813.81
2019-05-17T09:39:53.482Z,96818.61
2019-05-17T09:44:56.813Z,96815.08
2019-05-17T09:50:00.603Z,96806.53
2019-05-17T09:55:05.331Z,96811.03
2019-05-17T10:00:09.889Z,96805.61
2019-05-17T10:05:13.699Z,96801.00
2019-05-17T10:10:17.067Z,96786.81
2019-05-17T10:15:20.805Z,96782.41
2019-05-17T10:20:24.267Z,96780.80
2019-05-17T10:25:29.474Z,96775.33
2019-05-17T10:30:32.580Z,96769.86
2019-05-17T10:35:35.907Z,96765.29
2019-05-17T10:40:40.867Z,96755.21
2019-05-17T10:45:44.675Z,96754.92
2019-05-17T10:50:49.698Z,96751.12
2019-05-17T10:55:53.159Z,96750.01
2019-05-17T11:00:56.464Z,96748.37
2019-05-17T11:05:59.999Z,96751.23
2019-05-17T11:11:03.346Z,96733.50
2019-05-17T11:16:06.641Z,96737.13
2019-05-17T11:21:10.131Z,96739.81
2019-05-17T11:26:13.465Z,96741.28
2019-05-17T11:31:16.758Z,96735.25
2019-05-17T11:36:20.091Z,96726.99
2019-05-17T11:41:23.395Z,96723.63
2019-05-17T11:46:35.925Z,96721.98
2019-05-17T11:51:31.749Z,96715.81
2019-05-17T11:56:35.049Z,96716.34
2019-05-17T12:01:38.382Z,96723.06
2019-05-17T12:06:41.837Z,96720.32
2019-05-17T12:11:45.150Z,96709.73
2019-05-17T12:16:48.473Z,96706.44
2019-05-17T12:21:51.807Z,96701.37
2019-05-17T12:26:55.122Z,96705.50
2019-05-17T12:31:58.431Z,96698.69
2019-05-17T12:37:01.740Z,96686.07
2019-05-17T12:42:05.182Z,96685.61
2019-05-17T12:47:08.520Z,96684.16
2019-05-17T12:52:11.873Z,96676.61
2019-05-17T12:57:15.183Z,96677.78
2019-05-17T13:02:18.508Z,96674.33
2019-05-17T13:07:21.805Z,96665.16
2019-05-17T13:12:25.104Z,96660.46
2019-05-17T13:17:28.408Z,96658.91
2019-05-17T13:22:31.717Z,96664.41
2019-05-17T13:27:38.554Z,96662.76
2019-05-17T13:32:40.029Z,96664.70
2019-05-17T13:37:43.325Z,96653.53
2019-05-17T13:42:46.695Z,96657.69
2019-05-17T13:47:50.058Z,96646.05
2019-05-17T13:52:53.325Z,96641.19
2019-05-17T13:57:56.614Z,96640.95
2019-05-17T14:02:59.929Z,96636.20
2019-05-17T14:08:03.225Z,96631.55
2019-05-17T14:13:06.529Z,96627.80
2019-05-17T14:18:09.812Z,96623.69
2019-05-17T14:23:13.129Z,96622.66
2019-05-17T14:28:16.521Z,96623.84
2019-05-17T14:33:19.824Z,96627.50
2019-05-17T14:38:23.132Z,96626.20
2019-05-17T14:43:26.434Z,96621.81
2019-05-17T14:48:29.714Z,96618.34
2019-05-17T14:53:33.020Z,96616.54
2019-05-17T14:58:36.319Z,96606.34
2019-05-17T15:03:39.650Z,96610.79
2019-05-17T15:08:42.940Z,96603.67
2019-05-17T15:13:46.252Z,96603.31
2019-05-17T15:18:49.575Z,96590.55
2019-05-17T15:23:52.868Z,96590.21
2019-05-17T15:28:56.172Z,96590.17
2019-05-17T15:33:59.479Z,96593.83
2019-05-17T15:39:02.827Z,96582.49
2019-05-17T15:44:06.183Z,96581.84
2019-05-17T15:49:09.438Z,96570.78
2019-05-17T15:54:12.798Z,96568.19
2019-05-17T15:59:16.105Z,96572.78
2019-05-17T16:04:19.388Z,96559.41
2019-05-17T16:09:22.983Z,96556.30
2019-05-17T16:14:26.390Z,96539.38
2019-05-17T16:19:29.709Z,96539.69
2019-05-17T16:24:33.006Z,96546.23
2019-05-17T16:29:36.299Z,96541.13
2019-05-17T16:34:39.661Z,96536.98
2019-05-17T16:39:42.982Z,96539.39
2019-05-17T16:44:46.264Z,96535.36
2019-05-17T16:49:49.578Z,96536.60
2019-05-17T16:54:52.901Z,96534.72
2019-05-17T16:59:56.197Z,96540.08
2019-05-17T17:04:59.504Z,96537.25
2019-05-17T17:10:02.797Z,96533.29
2019-05-17T17:15:06.878Z,96538.55
2019-05-17T17:20:11.198Z,96536.19
2019-05-17T17:25:14.605Z,96539.73
2019-05-17T17:30:17.978Z,96542.55
2019-05-17T17:35:21.390Z,96544.83
2019-05-17T17:40:24.948Z,96548.59
2019-05-17T17:45:28.309Z,96543.52
2019-05-17T17:50:31.686Z,96540.03
2019-05-17T17:55:35.923Z,96542.37
2019-05-17T18:00:39.238Z,96545.72
2019-05-17T18:05:43.238Z,96539.70
2019-05-17T18:10:46.822Z,96544.77
2019-05-17T18:15:50.541Z,96540.14
2019-05-17T18:20:53.820Z,96550.01
2019-05-17T18:25:57.119Z,96553.50
2019-05-17T18:31:00.453Z,96545.86
2019-05-17T18:36:03.818Z,96550.70
2019-05-17T18:41:07.234Z,96555.97
2019-05-17T18:46:11.490Z,96562.45
2019-05-17T18:51:14.818Z,96560.36
2019-05-17T18:56:18.149Z,96559.23
2019-05-17T19:01:21.433Z,96559.05
2019-05-17T19:06:24.794Z,96571.59
2019-05-17T19:11:28.097Z,96570.58
2019-05-17T19:16:32.421Z,96566.11
2019-05-17T19:21:35.710Z,96575.16
2019-05-17T19:26:39.017Z,96577.09
2019-05-17T19:31:42.378Z,96584.23
2019-05-17T19:36:45.728Z,96587.55
2019-05-17T19:41:49.056Z,96586.06
2019-05-17T19:46:52.361Z,96586.80
2019-05-17T19:51:55.649Z,96580.63
2019-05-17T19:56:58.964Z,96589.16
2019-05-17T20:02:02.315Z,96586.95
2019-05-17T20:07:06.593Z,96584.87
2019-05-17T20:12:09.878Z,96580.53
2019-05-17T20:17:13.247Z,96589.02
2019-05-17T20:22:16.536Z,96588.36
2019-05-17T20:27:19.827Z,96590.65
2019-05-17T20:32:23.115Z,96589.04
2019-05-17T20:37:26.450Z,96583.98
2019-05-17T20:42:29.751Z,96584.51
2019-05-17T20:47:33.051Z,96590.27
2019-05-17T20:52:36.420Z,96587.89
2019-05-17T20:57:39.791Z,96588.60
2019-05-17T21:02:43.120Z,96594.08
2019-05-17T21:07:46.934Z,96596.70
2019-05-17T21:12:50.282Z,96595.16
2019-05-17T21:17:53.580Z,96590.64
2019-05-17T21:22:56.883Z,96590.88
2019-05-17T21:28:00.223Z,96590.02
2019-05-17T21:33:03.533Z,96592.77
2019-05-17T21:38:07.148Z,96584.92
2019-05-17T21:43:10.540Z,96595.55
2019-05-17T21:48:13.826Z,96593.36
2019-05-17T21:53:17.126Z,96591.80
2019-05-17T21:58:20.621Z,96595.77
2019-05-17T22:03:23.869Z,96584.60
2019-05-17T22:08:27.166Z,96581.34
2019-05-17T22:13:30.449Z,96586.78
2019-05-17T22:18:33.743Z,96585.08
2019-05-17T22:23:37.033Z,96581.88
2019-05-17T22:28:40.496Z,96575.91
2019-05-17T22:33:43.857Z,96581.96
2019-05-17T22:38:47.143Z,96585.31
2019-05-17T22:43:50.459Z,96587.11
2019-05-17T22:48:53.764Z,96586.58
2019-05-17T22:53:57.077Z,96592.29
2019-05-17T22:59:00.377Z,96592.84
2019-05-17T23:04:03.662Z,96592.79
2019-05-17T23:09:07.963Z,96587.77
2019-05-17T23:14:12.282Z,96591.71
2019-05-17T23:19:15.585Z,96582.84
2019-05-17T23:24:18.877Z,96584.63
2019-05-17T23:29:22.309Z,96577.47
2019-05-17T23:34:25.646Z,96579.28
2019-05-17T23:39:28.935Z,96569.42
2019-05-17T23:44:32.233Z,96572.70
2019-05-17T23:49:35.537Z,96574.30
2019-05-17T23:54:38.822Z,96581.88
2019-05-17T23:59:42.119Z,96587.55
